Terminal Aerodrome Forecast
Issued by NWS

Home | Current Version | Previous Version | Graphics & Text | Print | Product List | Glossary On
Versions: 1 2 3 4 5 6 7 8 9 10 11 12 13 14 15 16
000
FTUS41 KCLE 251900 AAA
TAFFDY
TAF AMD
KFDY 251931Z 2520/2618 25018G26KT P6SM BKN015 OVC025
      TEMPO 2520/2524 BKN025
     FM260000 26005KT P6SM SCT025 BKN150
     FM260800 36005KT 4SM -RA BR BKN040 OVC100
     FM261000 36007KT 3SM -RA BR BKN008 OVC020
     FM261700 31009KT 5SM -RA BR OVC015=

USA.gov is the U.S. government's official web portal to all federal, state and local government web resources and services.